Portada
METAR-TAF:

METAR-TAF

Aeroports :

Mae Hong Son, Tailàndia

latitud: 19-18N, longitud: 097-50E, altitud: 267 m

Observació

L'informe es va fer fa 26 minuts, a les 12:00 UTC
Vent 2 kt amb direcció variable
Temperatura 36°C
Humitat 37%
Pressió 1005 hPa
Visibilitat 10 km o més
Escasses núvols a una alçada de 2500 ft

METAR: VTCH 251200Z VRB02KT 9999 FEW025 36/19 Q1005 NOSIG

Hora: 19:26 (12:26 UTC)

Pronòstic

L'informe es va fer fa 1 hora i 26 minuts, a les 11:00 UTC
Pronòstic vàlid del 25 a les 12 UTC al 26 a les 12 UTC
Vent 5 kt del Oest/Sud-Oest
Visibilitat 10 km o més
Escasses núvols a una alçada de 2500 ft

TAF: VTCH 251100Z 2512/2612 24005KT 9999 FEW025

Observacions i pronòstics meteorològics de més de 4000 aeroports (METAR i TAF).

Les estacions disponibles són els punts grocs i vermells al mapa.

Posi el ratolí al punt desitjat per veure el nom de l'estació.

Feu clic per veure les observacions i els pronòstics meteorològics.

Per canviar el mapa: feu clic els botons verds amb una creu de color negre per apropar; al botó verd amb un guió per allunyar la imatge; o en les fletxes verdes per a mapes adjacents.


METAR-TAF: